Viola, Iowa
Current Conditions -  °F | °C
As of 5:15 AM on Friday 28 Nov 2014 (Local Time) from KMXO Reporting Station
Overcast Overcast  
Wind Chill:   Ceiling: 10000
Heat Index: 16°   Visibility: 10mi
Dew Point:   Wind: 12mph
Humidity: 73%   Direction: 140°SE
Pressure: 30.18"   Gusts: 17mph
Location:  42.09°N, 91.39°W
Report Text: KMXO 281115Z AUTO 14010G15KT 10SM OVC100 M09/M13 A3018 RMK AO2
Loading
Personal Weather Stations






























Interactive Weather Map New forecast layout! Learn more

10-Day Weather Forecast

Advertisements
Track Severe Weather on mobile